createdAt,value
2017-10-04T00:03:10.148Z,12.41
2017-10-04T00:13:10.082Z,12.42
2017-10-04T00:23:10.110Z,12.56
2017-10-04T00:33:10.087Z,12.69
2017-10-04T00:43:10.123Z,12.54
2017-10-04T00:53:10.142Z,12.66
2017-10-04T01:03:10.216Z,12.59
2017-10-04T01:13:10.145Z,12.59
2017-10-04T01:23:10.111Z,12.42
2017-10-04T01:33:10.218Z,12.41
2017-10-04T01:43:10.130Z,12.52
2017-10-04T01:53:10.189Z,12.44
2017-10-04T02:03:10.150Z,12.33
2017-10-04T02:13:10.200Z,12.48
2017-10-04T02:23:10.174Z,12.39
2017-10-04T02:33:10.257Z,12.23
2017-10-04T02:43:10.179Z,12.23
2017-10-04T02:53:10.250Z,12.37
2017-10-04T03:03:10.213Z,12.38
2017-10-04T03:13:10.290Z,12.37
2017-10-04T03:23:10.272Z,12.3
2017-10-04T03:33:10.328Z,12.34
2017-10-04T03:43:10.257Z,12.29
2017-10-04T03:53:10.327Z,12.2
2017-10-04T04:03:10.284Z,12.26
2017-10-04T04:13:10.362Z,12.24
2017-10-04T04:23:10.347Z,12.01
2017-10-04T04:33:10.263Z,11.97
2017-10-04T04:43:10.351Z,11.78
2017-10-04T04:53:10.279Z,11.85
2017-10-04T05:03:10.386Z,11.74
2017-10-04T05:13:10.323Z,11.68
2017-10-04T05:23:10.411Z,11.53
2017-10-04T05:33:10.386Z,11.65
2017-10-04T05:43:10.404Z,11.56
2017-10-04T05:53:10.361Z,11.56
2017-10-04T06:03:10.439Z,11.54
2017-10-04T06:13:10.389Z,11.59
2017-10-04T06:23:10.482Z,11.75
2017-10-04T06:33:10.457Z,11.96
2017-10-04T06:43:10.337Z,12.11
2017-10-04T06:53:10.437Z,12.52
2017-10-04T07:04:18.737Z,12.99
2017-10-04T07:13:10.501Z,12.92
2017-10-04T07:23:10.432Z,13.11
2017-10-04T07:33:10.494Z,13.36
2017-10-04T07:43:10.503Z,13.3
2017-10-04T07:53:10.575Z,13.4
2017-10-04T08:03:10.501Z,13.77
2017-10-04T08:13:10.567Z,13.98
2017-10-04T08:23:11.176Z,13.88
2017-10-04T08:33:10.532Z,13.96
2017-10-04T08:43:10.508Z,14.43
2017-10-04T08:53:10.583Z,15.31
2017-10-04T09:03:10.520Z,15.43
2017-10-04T09:13:10.623Z,15.02
2017-10-04T09:23:10.542Z,14.9
2017-10-04T09:33:10.655Z,14.6
2017-10-04T09:43:10.526Z,14.83
2017-10-04T09:53:10.588Z,15.24
2017-10-04T10:03:10.551Z,15.02
2017-10-04T10:13:10.552Z,15.01
2017-10-04T10:23:10.583Z,15.15
2017-10-04T10:33:10.593Z,15.41
2017-10-04T10:43:10.590Z,15.51
2017-10-04T10:53:10.591Z,15.61
2017-10-04T11:03:10.611Z,15.92
2017-10-04T11:13:10.625Z,15.96
2017-10-04T11:23:10.643Z,16.26
2017-10-04T11:33:10.619Z,16.23
2017-10-04T11:43:10.661Z,16.11
2017-10-04T11:53:10.637Z,16.01
2017-10-04T12:03:10.672Z,15.48
2017-10-04T12:13:10.670Z,15.41
2017-10-04T12:23:10.669Z,15.46
2017-10-04T12:33:10.663Z,15.56
2017-10-04T12:43:10.620Z,15.56
2017-10-04T12:53:10.666Z,15.66
2017-10-04T13:03:10.656Z,15.85
2017-10-04T13:13:10.718Z,15.78
2017-10-04T13:23:10.752Z,16
2017-10-04T13:33:10.765Z,15.76
2017-10-04T13:43:10.650Z,15.45
2017-10-04T13:53:10.728Z,15.41
2017-10-04T14:03:10.702Z,15.28
2017-10-04T14:13:10.772Z,15.12
2017-10-04T14:23:10.743Z,15.15
2017-10-04T14:33:10.746Z,15.01
2017-10-04T14:43:10.776Z,15.03
2017-10-04T14:53:10.740Z,14.81
2017-10-04T15:03:10.797Z,14.71
2017-10-04T15:13:10.760Z,14.68
2017-10-04T15:23:10.661Z,14.84
2017-10-04T15:33:10.749Z,14.86
2017-10-04T15:43:10.685Z,14.68
2017-10-04T15:53:10.648Z,14.69
2017-10-04T16:03:10.659Z,14.61
2017-10-04T16:13:10.679Z,14.49
2017-10-04T16:23:10.692Z,14.43
2017-10-04T16:33:10.649Z,14.32
2017-10-04T16:43:10.654Z,14.27
2017-10-04T16:53:10.645Z,14.13
2017-10-04T17:03:10.698Z,14.1
2017-10-04T17:13:10.676Z,14.07
2017-10-04T17:23:12.764Z,13.98
2017-10-04T17:33:10.692Z,13.94
2017-10-04T17:43:10.676Z,13.69
2017-10-04T17:53:10.689Z,13.8
2017-10-04T18:03:10.650Z,13.61
2017-10-04T18:13:10.695Z,13.7
2017-10-04T18:23:10.636Z,13.7
2017-10-04T18:33:10.701Z,13.7
2017-10-04T18:43:10.762Z,13.59
2017-10-04T18:53:10.659Z,13.62
2017-10-04T19:03:10.765Z,13.69
2017-10-04T19:13:10.672Z,13.59
2017-10-04T19:23:10.675Z,13.44
2017-10-04T19:33:10.647Z,13.56
2017-10-04T19:43:10.736Z,13.4
2017-10-04T19:53:10.666Z,13.4
2017-10-04T20:03:10.685Z,13.4
2017-10-04T20:13:10.793Z,13.27
2017-10-04T20:23:10.728Z,13.44
2017-10-04T20:33:11.151Z,13.43
2017-10-04T20:43:10.765Z,13.43
2017-10-04T20:53:10.711Z,13.36
2017-10-04T21:03:10.791Z,13.38
2017-10-04T21:13:10.730Z,13.4
2017-10-04T21:23:10.733Z,13.36
2017-10-04T21:33:10.772Z,13.52
2017-10-04T21:43:10.633Z,13.49
2017-10-04T21:53:10.759Z,13.52
2017-10-04T22:03:10.815Z,13.56
2017-10-04T22:13:10.715Z,13.56
2017-10-04T22:23:10.769Z,13.51
2017-10-04T22:33:10.717Z,13.67
2017-10-04T22:43:10.720Z,13.55
2017-10-04T22:53:10.781Z,13.43
2017-10-04T23:03:10.912Z,13.4
2017-10-04T23:13:10.934Z,13.29
2017-10-04T23:23:10.695Z,13.09
2017-10-04T23:33:10.661Z,12.97
2017-10-04T23:43:10.753Z,12.67
2017-10-04T23:53:10.698Z,12.57
